Time;durP1;ratioP1;P1;durP2;ratioP2;P2;SDS_P1;SDS_P2;PMS_P1;PMS_P2;Temp;Humidity;BMP_temperature;BMP_pressure;BME280_temperature;BME280_humidity;BME280_pressure;Samples;Min_cycle;Max_cycle;Signal;HPM_P1;HPM_P2
2023/09/21 00:00:15;;;;;;;56.77;2.57;;;;;;;;;;5134666;27;20814;-70
2023/09/21 00:02:44;;;;;;;57.17;2.70;;;;;;;;;;5135108;27;20484;-70
2023/09/21 00:05:13;;;;;;;57.00;2.80;;;;;;;;;;5146569;27;20453;-70
2023/09/21 00:07:40;;;;;;;56.77;2.43;;;;;;;;;;5148642;27;20472;-70
2023/09/21 00:10:08;;;;;;;56.43;2.50;;;;;;;;;;5149926;27;20441;-70
2023/09/21 00:12:35;;;;;;;58.43;2.90;;;;;;;;;;5150250;27;20441;-70
2023/09/21 00:15:06;;;;;;;56.73;2.63;;;;;;;;;;5149586;27;20448;-70
2023/09/21 00:17:35;;;;;;;56.60;2.30;;;;;;;;;;5149737;27;20514;-71
2023/09/21 00:20:12;;;;;;;57.50;3.13;;;;;;;;;;5150005;27;20513;-70
2023/09/21 00:22:40;;;;;;;56.73;2.60;;;;;;;;;;5150047;27;20488;-71
2023/09/21 00:25:08;;;;;;;56.70;2.40;;;;;;;;;;5149089;27;20944;-72
2023/09/21 00:27:35;;;;;;;56.47;2.53;;;;;;;;;;5148582;27;20472;-71
2023/09/21 00:30:04;;;;;;;56.77;2.40;;;;;;;;;;5148623;27;20455;-71
2023/09/21 00:32:31;;;;;;;56.60;2.30;;;;;;;;;;5149004;27;20457;-70
2023/09/21 00:35:00;;;;;;;56.47;2.70;;;;;;;;;;5148969;27;20535;-70
2023/09/21 00:37:28;;;;;;;56.77;2.50;;;;;;;;;;5147986;27;20541;-70
2023/09/21 00:39:55;;;;;;;56.63;2.40;;;;;;;;;;5149391;27;20449;-71
2023/09/21 00:42:22;;;;;;;56.97;3.10;;;;;;;;;;5148996;27;20471;-70
2023/09/21 00:44:51;;;;;;;56.70;2.50;;;;;;;;;;5147963;27;20443;-70
2023/09/21 00:47:18;;;;;;;56.47;2.50;;;;;;;;;;5147499;27;20473;-70
2023/09/21 00:49:46;;;;;;;56.70;2.60;;;;;;;;;;5147390;27;20527;-71
2023/09/21 00:52:14;;;;;;;56.80;2.67;;;;;;;;;;5147994;27;20465;-71
2023/09/21 00:54:42;;;;;;;57.63;2.60;;;;;;;;;;5145857;27;20451;-71
2023/09/21 00:57:11;;;;;;;56.57;2.40;;;;;;;;;;5138234;27;20832;-71
2023/09/21 00:59:40;;;;;;;56.80;2.83;;;;;;;;;;5132588;27;20463;-72
2023/09/21 01:02:11;;;;;;;56.80;2.57;;;;;;;;;;5154056;27;20578;-71
2023/09/21 01:04:39;;;;;;;57.10;2.63;;;;;;;;;;5153510;27;20456;-70
2023/09/21 01:07:17;;;;;;;56.80;2.70;;;;;;;;;;5153615;27;21048;-70
2023/09/21 01:09:46;;;;;;;56.60;2.40;;;;;;;;;;5153874;27;20493;-71
2023/09/21 01:12:13;;;;;;;57.10;2.73;;;;;;;;;;5153498;27;20455;-71
2023/09/21 01:14:44;;;;;;;56.80;2.70;;;;;;;;;;5154689;27;20516;-71
2023/09/21 01:17:12;;;;;;;56.90;2.60;;;;;;;;;;5126731;27;20498;-70
2023/09/21 01:19:39;;;;;;;56.53;2.60;;;;;;;;;;5132584;27;20472;-70
2023/09/21 01:22:11;;;;;;;56.80;2.53;;;;;;;;;;5132373;27;20510;-71
2023/09/21 01:24:40;;;;;;;56.67;2.30;;;;;;;;;;5132427;27;20441;-70
2023/09/21 01:27:08;;;;;;;57.00;2.53;;;;;;;;;;5131864;27;20465;-70
2023/09/21 01:29:35;;;;;;;57.07;3.20;;;;;;;;;;5132240;27;20539;-71
2023/09/21 01:32:03;;;;;;;56.73;2.30;;;;;;;;;;5132360;27;20478;-71
2023/09/21 01:34:31;;;;;;;56.77;2.60;;;;;;;;;;5132182;27;20498;-71
2023/09/21 01:36:58;;;;;;;57.20;3.07;;;;;;;;;;5131846;27;20496;-71
2023/09/21 01:39:25;;;;;;;56.77;2.43;;;;;;;;;;5132177;27;20449;-71
2023/09/21 01:41:54;;;;;;;56.67;2.40;;;;;;;;;;5131876;27;20455;-71
2023/09/21 01:44:22;;;;;;;56.80;2.60;;;;;;;;;;5132060;27;20540;-71
2023/09/21 01:46:50;;;;;;;56.83;2.80;;;;;;;;;;5131704;27;20832;-70
2023/09/21 01:49:17;;;;;;;56.60;2.67;;;;;;;;;;5131929;27;20449;-70
2023/09/21 01:51:45;;;;;;;56.67;2.60;;;;;;;;;;5131950;27;20826;-71
2023/09/21 01:54:12;;;;;;;57.40;2.73;;;;;;;;;;5132084;27;20501;-71
2023/09/21 01:56:39;;;;;;;56.80;2.90;;;;;;;;;;5131733;27;20456;-71
2023/09/21 01:59:08;;;;;;;56.47;2.30;;;;;;;;;;5131659;27;20940;-72
2023/09/21 02:01:36;;;;;;;56.77;2.83;;;;;;;;;;5131827;27;20481;-71
2023/09/21 02:04:04;;;;;;;56.53;2.43;;;;;;;;;;5131374;27;20568;-71
2023/09/21 02:06:31;;;;;;;56.70;2.50;;;;;;;;;;5131527;27;20451;-71
2023/09/21 02:08:59;;;;;;;56.67;2.50;;;;;;;;;;5131584;27;20464;-72
2023/09/21 02:11:26;;;;;;;56.77;2.50;;;;;;;;;;5131865;27;20450;-72
2023/09/21 02:13:54;;;;;;;57.47;2.63;;;;;;;;;;5131626;27;20815;-71
2023/09/21 02:16:24;;;;;;;56.50;2.50;;;;;;;;;;5131473;27;20808;-71
2023/09/21 02:18:52;;;;;;;56.90;2.63;;;;;;;;;;5131352;27;20441;-72
2023/09/21 02:21:19;;;;;;;56.83;2.60;;;;;;;;;;5131871;27;20448;-71
2023/09/21 02:23:47;;;;;;;56.47;2.40;;;;;;;;;;5132795;27;20480;-71
2023/09/21 02:26:14;;;;;;;56.57;2.60;;;;;;;;;;5135955;27;20441;-71
2023/09/21 02:28:42;;;;;;;57.10;3.10;;;;;;;;;;5135494;27;20975;-71
2023/09/21 02:31:10;;;;;;;56.60;2.50;;;;;;;;;;5135608;27;20428;-72
2023/09/21 02:33:38;;;;;;;56.60;2.30;;;;;;;;;;5135837;27;20781;-72
2023/09/21 02:36:13;;;;;;;56.50;2.27;;;;;;;;;;5135372;27;20449;-71
2023/09/21 02:38:40;;;;;;;56.90;2.57;;;;;;;;;;5135560;27;20586;-72
2023/09/21 02:41:07;;;;;;;56.80;2.47;;;;;;;;;;5135521;27;20447;-71
2023/09/21 02:43:34;;;;;;;57.77;2.60;;;;;;;;;;5135300;27;20472;-70
2023/09/21 02:46:01;;;;;;;56.50;2.50;;;;;;;;;;5135675;27;20440;-70
2023/09/21 02:48:28;;;;;;;56.80;2.40;;;;;;;;;;5135126;27;20474;-70
2023/09/21 02:50:58;;;;;;;56.57;2.30;;;;;;;;;;5135234;27;20492;-70
2023/09/21 02:53:25;;;;;;;56.93;2.53;;;;;;;;;;5135176;27;20928;-70
2023/09/21 02:55:53;;;;;;;56.37;2.13;;;;;;;;;;5135076;27;20536;-70
2023/09/21 02:58:20;;;;;;;56.63;2.20;;;;;;;;;;5134655;27;20465;-71
2023/09/21 03:00:49;;;;;;;56.83;2.60;;;;;;;;;;5135188;27;20445;-70
2023/09/21 03:03:17;;;;;;;56.67;2.33;;;;;;;;;;5134906;27;20503;-71
2023/09/21 03:05:46;;;;;;;56.70;2.47;;;;;;;;;;5135087;27;20444;-71
2023/09/21 03:08:14;;;;;;;56.77;2.60;;;;;;;;;;5134431;27;20882;-71
2023/09/21 03:10:43;;;;;;;56.37;2.40;;;;;;;;;;5134892;27;20445;-71
2023/09/21 03:13:17;;;;;;;56.60;2.40;;;;;;;;;;5135170;27;20455;-71
2023/09/21 03:15:45;;;;;;;56.77;2.50;;;;;;;;;;5134949;27;20543;-71
2023/09/21 03:18:12;;;;;;;56.57;2.30;;;;;;;;;;5135291;27;20832;-71
2023/09/21 03:20:40;;;;;;;57.10;2.90;;;;;;;;;;5135108;27;20452;-72
2023/09/21 03:23:09;;;;;;;56.60;2.40;;;;;;;;;;5134419;27;20567;-71
2023/09/21 03:25:40;;;;;;;56.50;2.50;;;;;;;;;;5135021;27;20444;-71
2023/09/21 03:28:10;;;;;;;56.37;2.33;;;;;;;;;;5134455;27;20468;-71
2023/09/21 03:30:38;;;;;;;56.80;2.60;;;;;;;;;;5134720;27;20793;-71
2023/09/21 03:33:06;;;;;;;56.57;2.40;;;;;;;;;;5134267;27;20490;-71
2023/09/21 03:35:33;;;;;;;56.40;2.43;;;;;;;;;;5133480;27;20528;-71
2023/09/21 03:38:00;;;;;;;56.60;2.47;;;;;;;;;;5134092;27;20471;-71
2023/09/21 03:40:30;;;;;;;56.70;2.57;;;;;;;;;;5134571;27;20468;-71
2023/09/21 03:42:59;;;;;;;56.67;2.50;;;;;;;;;;5134137;27;20516;-71
2023/09/21 03:45:27;;;;;;;56.77;2.63;;;;;;;;;;5134418;27;20874;-71
2023/09/21 03:47:54;;;;;;;56.50;2.20;;;;;;;;;;5134332;27;20520;-71
2023/09/21 03:50:27;;;;;;;56.33;2.30;;;;;;;;;;5154340;27;20496;-72
2023/09/21 03:52:54;;;;;;;56.60;2.40;;;;;;;;;;5154976;27;20450;-71
2023/09/21 03:55:22;;;;;;;56.70;2.70;;;;;;;;;;5154548;27;20872;-71
2023/09/21 03:57:50;;;;;;;56.77;2.50;;;;;;;;;;5154718;27;20467;-71
2023/09/21 04:00:26;;;;;;;57.17;3.10;;;;;;;;;;5154633;27;20999;-70
2023/09/21 04:02:54;;;;;;;56.40;2.33;;;;;;;;;;5154505;27;20570;-70
2023/09/21 04:05:21;;;;;;;56.70;2.63;;;;;;;;;;5154732;27;20444;-71
2023/09/21 04:07:49;;;;;;;58.73;2.70;;;;;;;;;;5154224;27;20492;-71
2023/09/21 04:10:16;;;;;;;56.60;2.67;;;;;;;;;;5154243;27;20436;-70
2023/09/21 04:12:44;;;;;;;56.80;2.40;;;;;;;;;;5154426;27;20923;-70
2023/09/21 04:15:12;;;;;;;56.90;2.83;;;;;;;;;;5154215;27;20937;-71
2023/09/21 04:17:40;;;;;;;57.00;2.67;;;;;;;;;;5154286;27;20464;-71
2023/09/21 04:20:12;;;;;;;56.37;2.23;;;;;;;;;;5154204;27;20936;-71
2023/09/21 04:22:40;;;;;;;56.47;2.60;;;;;;;;;;5154384;27;20448;-71
2023/09/21 04:25:09;;;;;;;56.50;2.23;;;;;;;;;;5154178;27;20450;-71
2023/09/21 04:27:38;;;;;;;56.40;2.47;;;;;;;;;;5153830;27;20563;-70
2023/09/21 04:30:06;;;;;;;56.27;2.30;;;;;;;;;;5153921;27;20919;-70
2023/09/21 04:32:35;;;;;;;56.60;2.30;;;;;;;;;;5154286;27;20455;-71
2023/09/21 04:35:04;;;;;;;56.57;2.60;;;;;;;;;;5153912;27;20935;-71
2023/09/21 04:37:32;;;;;;;58.40;3.17;;;;;;;;;;5154042;27;20460;-71
2023/09/21 04:39:59;;;;;;;56.47;2.30;;;;;;;;;;5153962;27;20440;-70
2023/09/21 04:42:28;;;;;;;56.40;2.30;;;;;;;;;;5153727;27;20808;-70
2023/09/21 04:44:56;;;;;;;57.77;2.60;;;;;;;;;;5153860;27;21026;-70
2023/09/21 04:47:23;;;;;;;56.37;2.13;;;;;;;;;;5153786;27;20543;-70
2023/09/21 04:49:50;;;;;;;61.40;2.70;;;;;;;;;;5153592;27;20467;-70
2023/09/21 04:52:19;;;;;;;56.40;2.50;;;;;;;;;;5153946;27;20435;-70
2023/09/21 04:54:50;;;;;;;57.00;2.43;;;;;;;;;;5153666;27;20446;-70
2023/09/21 04:57:17;;;;;;;58.23;2.60;;;;;;;;;;5153649;27;20487;-70
2023/09/21 04:59:44;;;;;;;56.90;2.67;;;;;;;;;;5153498;27;20546;-71
2023/09/21 05:02:11;;;;;;;56.40;2.23;;;;;;;;;;5153538;27;20814;-71
2023/09/21 05:04:38;;;;;;;56.53;2.57;;;;;;;;;;5153521;27;20493;-71
2023/09/21 05:07:06;;;;;;;56.30;2.20;;;;;;;;;;5153377;27;20460;-70
2023/09/21 05:09:34;;;;;;;56.50;2.50;;;;;;;;;;5153091;27;20439;-68
2023/09/21 05:12:03;;;;;;;56.90;2.73;;;;;;;;;;5153607;27;20436;-70
2023/09/21 05:14:30;;;;;;;56.80;2.70;;;;;;;;;;5153816;27;20789;-70
2023/09/21 05:16:58;;;;;;;56.90;2.83;;;;;;;;;;5153266;27;20460;-70
2023/09/21 05:19:25;;;;;;;56.60;2.50;;;;;;;;;;5153302;27;20514;-70
2023/09/21 05:21:56;;;;;;;56.37;2.63;;;;;;;;;;5153349;27;20500;-70
2023/09/21 05:24:23;;;;;;;56.60;2.67;;;;;;;;;;5153177;27;20515;-71
2023/09/21 05:26:52;;;;;;;56.47;2.30;;;;;;;;;;5153131;27;20503;-71
2023/09/21 05:29:19;;;;;;;56.67;2.60;;;;;;;;;;5152824;27;20594;-71
2023/09/21 05:31:47;;;;;;;56.47;2.67;;;;;;;;;;5153233;27;20454;-71
2023/09/21 05:34:14;;;;;;;56.20;2.20;;;;;;;;;;5153100;27;20440;-69
2023/09/21 05:36:42;;;;;;;56.63;2.40;;;;;;;;;;5152700;27;20470;-71
2023/09/21 05:39:09;;;;;;;56.60;2.67;;;;;;;;;;5152826;27;20444;-70
2023/09/21 05:41:36;;;;;;;56.57;2.70;;;;;;;;;;5153254;27;20513;-68
2023/09/21 05:44:05;;;;;;;56.80;2.57;;;;;;;;;;5152731;27;21184;-69
2023/09/21 05:46:32;;;;;;;56.90;2.80;;;;;;;;;;5152744;27;20819;-70
2023/09/21 05:48:59;;;;;;;56.57;2.60;;;;;;;;;;5152612;27;20444;-70
2023/09/21 05:51:26;;;;;;;56.50;2.77;;;;;;;;;;5152775;27;20459;-70
2023/09/21 05:53:53;;;;;;;56.33;2.30;;;;;;;;;;5152924;27;20443;-70
2023/09/21 05:56:21;;;;;;;56.67;2.60;;;;;;;;;;5152574;27;20516;-70
2023/09/21 05:58:48;;;;;;;56.60;3.03;;;;;;;;;;5152193;27;20440;-69
2023/09/21 06:01:16;;;;;;;56.50;2.40;;;;;;;;;;5152016;27;20452;-70
2023/09/21 06:03:43;;;;;;;56.23;2.43;;;;;;;;;;5145936;27;20484;-70
2023/09/21 06:06:10;;;;;;;56.40;2.30;;;;;;;;;;5131390;27;20717;-69
2023/09/21 06:08:38;;;;;;;56.57;2.30;;;;;;;;;;5131488;27;20547;-70
2023/09/21 06:11:05;;;;;;;56.30;2.40;;;;;;;;;;5131801;27;20924;-70
2023/09/21 06:13:32;;;;;;;56.57;2.60;;;;;;;;;;5131452;27;20951;-70
2023/09/21 06:16:02;;;;;;;56.50;2.50;;;;;;;;;;5131372;27;20448;-69
2023/09/21 06:18:30;;;;;;;56.80;2.30;;;;;;;;;;5130077;27;20472;-69
2023/09/21 06:20:58;;;;;;;56.73;2.60;;;;;;;;;;5131475;27;20444;-69
2023/09/21 06:23:25;;;;;;;56.07;1.97;;;;;;;;;;5123167;28;20456;-69
2023/09/21 06:25:54;;;;;;;56.40;2.60;;;;;;;;;;5131129;27;20459;-69
2023/09/21 06:28:22;;;;;;;56.60;2.30;;;;;;;;;;5130625;27;20848;-69
2023/09/21 06:30:51;;;;;;;56.40;2.40;;;;;;;;;;5131232;27;20467;-69
2023/09/21 06:33:23;;;;;;;56.70;2.50;;;;;;;;;;5131884;27;20455;-69
2023/09/21 06:35:52;;;;;;;56.60;2.50;;;;;;;;;;5131772;27;20779;-70
2023/09/21 06:38:19;;;;;;;57.27;3.03;;;;;;;;;;5131092;27;20576;-70
2023/09/21 06:40:46;;;;;;;56.47;2.40;;;;;;;;;;5131670;27;20441;-70
2023/09/21 06:43:13;;;;;;;56.50;2.60;;;;;;;;;;5131497;27;20891;-70
2023/09/21 06:45:40;;;;;;;56.27;2.33;;;;;;;;;;5131592;27;20480;-70
2023/09/21 06:48:10;;;;;;;56.57;2.30;;;;;;;;;;5131294;27;20465;-70
2023/09/21 06:50:40;;;;;;;56.20;2.40;;;;;;;;;;5131256;27;20936;-70
2023/09/21 06:53:08;;;;;;;56.23;2.30;;;;;;;;;;5131844;27;20518;-71
2023/09/21 06:55:36;;;;;;;56.23;2.33;;;;;;;;;;5131219;27;20925;-70
2023/09/21 06:58:03;;;;;;;56.40;2.40;;;;;;;;;;5131108;27;20469;-70
2023/09/21 07:00:30;;;;;;;56.27;2.40;;;;;;;;;;5131740;27;20444;-70
2023/09/21 07:02:57;;;;;;;56.57;2.60;;;;;;;;;;5131489;27;20445;-71
2023/09/21 07:05:24;;;;;;;56.60;2.40;;;;;;;;;;5131135;27;20491;-71
2023/09/21 07:07:51;;;;;;;56.57;2.70;;;;;;;;;;5131050;27;20468;-71
2023/09/21 07:10:19;;;;;;;57.10;2.60;;;;;;;;;;5131219;27;20513;-71
2023/09/21 07:12:46;;;;;;;56.80;2.70;;;;;;;;;;5135211;27;20858;-70
2023/09/21 07:15:14;;;;;;;57.10;2.87;;;;;;;;;;5134849;27;20448;-70
2023/09/21 07:17:41;;;;;;;57.60;2.70;;;;;;;;;;5134606;27;20464;-71
2023/09/21 07:20:08;;;;;;;56.90;3.23;;;;;;;;;;5134900;27;20456;-71
2023/09/21 07:22:36;;;;;;;57.63;2.40;;;;;;;;;;5134787;27;20447;-70
2023/09/21 07:25:03;;;;;;;56.57;2.40;;;;;;;;;;5134562;27;20514;-71
2023/09/21 07:27:32;;;;;;;56.50;2.50;;;;;;;;;;5134525;27;20464;-72
2023/09/21 07:30:00;;;;;;;56.60;2.53;;;;;;;;;;5134610;27;20444;-72
2023/09/21 07:32:28;;;;;;;56.77;2.53;;;;;;;;;;5134669;27;20854;-72
2023/09/21 07:34:55;;;;;;;56.20;2.17;;;;;;;;;;5134966;27;20532;-72
2023/09/21 07:37:23;;;;;;;56.33;2.10;;;;;;;;;;5134075;27;20685;-72
2023/09/21 07:39:50;;;;;;;56.67;2.30;;;;;;;;;;5134312;27;20443;-72
2023/09/21 07:42:17;;;;;;;56.67;2.47;;;;;;;;;;5134539;27;20441;-72
2023/09/21 07:44:45;;;;;;;56.60;2.77;;;;;;;;;;5134266;27;20487;-72
2023/09/21 07:47:13;;;;;;;56.50;2.20;;;;;;;;;;5133982;27;20994;-71
2023/09/21 07:49:40;;;;;;;57.10;2.27;;;;;;;;;;5134051;27;20971;-70
2023/09/21 07:52:08;;;;;;;56.30;2.10;;;;;;;;;;5134329;27;20452;-70
2023/09/21 07:54:35;;;;;;;56.37;2.20;;;;;;;;;;5134267;27;20846;-70
2023/09/21 07:57:03;;;;;;;56.80;2.40;;;;;;;;;;5134193;27;20465;-70
2023/09/21 07:59:31;;;;;;;56.80;2.83;;;;;;;;;;5134093;27;20445;-70
2023/09/21 08:02:00;;;;;;;56.37;1.90;;;;;;;;;;5134079;27;20476;-71
2023/09/21 08:04:28;;;;;;;56.70;2.30;;;;;;;;;;5133851;27;20487;-70
2023/09/21 08:06:56;;;;;;;57.73;2.30;;;;;;;;;;5133744;27;20469;-71
2023/09/21 08:09:24;;;;;;;56.30;2.40;;;;;;;;;;5133863;27;20543;-71
2023/09/21 08:11:52;;;;;;;56.60;2.50;;;;;;;;;;5133959;27;20445;-71
2023/09/21 08:14:19;;;;;;;57.23;2.30;;;;;;;;;;5133957;27;20449;-68
2023/09/21 08:16:46;;;;;;;56.43;2.17;;;;;;;;;;5133649;27;20513;-71
2023/09/21 08:19:14;;;;;;;56.63;2.40;;;;;;;;;;5133484;27;20951;-71
2023/09/21 08:21:42;;;;;;;56.23;2.10;;;;;;;;;;5133565;27;20451;-70
2023/09/21 08:24:10;;;;;;;56.60;2.50;;;;;;;;;;5151158;27;20955;-69
2023/09/21 08:26:37;;;;;;;56.80;2.50;;;;;;;;;;5154395;27;20929;-70
2023/09/21 08:29:04;;;;;;;57.77;2.13;;;;;;;;;;5153959;27;20931;-70
2023/09/21 08:31:31;;;;;;;56.57;2.80;;;;;;;;;;5125507;27;20448;-70
2023/09/21 08:33:59;;;;;;;56.20;2.10;;;;;;;;;;5133326;27;20940;-71
2023/09/21 08:36:28;;;;;;;56.70;2.33;;;;;;;;;;5132882;27;20448;-70
2023/09/21 08:38:55;;;;;;;56.40;2.50;;;;;;;;;;5133250;27;20480;-71
2023/09/21 08:41:22;;;;;;;56.80;2.60;;;;;;;;;;5133205;27;20891;-70
2023/09/21 08:43:50;;;;;;;56.47;2.43;;;;;;;;;;5133218;27;20513;-71
2023/09/21 08:46:18;;;;;;;56.40;1.97;;;;;;;;;;5132645;27;20488;-70
2023/09/21 08:48:46;;;;;;;56.50;2.00;;;;;;;;;;5133160;27;20488;-70
2023/09/21 08:51:15;;;;;;;56.37;2.43;;;;;;;;;;5132802;27;20449;-71
2023/09/21 08:53:46;;;;;;;56.67;3.00;;;;;;;;;;5133135;27;20459;-71
2023/09/21 08:56:13;;;;;;;56.23;2.20;;;;;;;;;;5133096;27;20552;-71
2023/09/21 08:58:41;;;;;;;56.30;1.90;;;;;;;;;;5132507;27;20468;-71
2023/09/21 09:01:09;;;;;;;56.20;2.20;;;;;;;;;;5132708;27;20921;-71
2023/09/21 09:03:36;;;;;;;56.80;2.47;;;;;;;;;;5132756;27;20447;-70
2023/09/21 09:06:04;;;;;;;56.40;2.17;;;;;;;;;;5132705;27;20488;-71
2023/09/21 09:08:31;;;;;;;56.37;2.23;;;;;;;;;;5132356;27;20461;-71
2023/09/21 09:11:00;;;;;;;56.50;2.23;;;;;;;;;;5132742;27;20448;-69
2023/09/21 09:13:31;;;;;;;56.37;2.27;;;;;;;;;;5132360;27;20899;-70
2023/09/21 09:15:59;;;;;;;56.13;2.10;;;;;;;;;;5132741;27;20440;-70
2023/09/21 09:18:26;;;;;;;56.23;2.43;;;;;;;;;;5132201;27;20555;-70
2023/09/21 09:20:55;;;;;;;55.90;2.23;;;;;;;;;;5132629;27;20444;-72
2023/09/21 09:23:23;;;;;;;56.13;1.80;;;;;;;;;;5132392;27;20444;-71
2023/09/21 09:25:51;;;;;;;56.50;2.07;;;;;;;;;;5132227;27;20575;-71
2023/09/21 09:28:19;;;;;;;56.03;1.97;;;;;;;;;;5132122;27;20644;-70
2023/09/21 09:30:48;;;;;;;56.67;2.13;;;;;;;;;;5132454;27;20445;-70
2023/09/21 09:33:17;;;;;;;56.70;2.23;;;;;;;;;;5131260;27;20449;-70
2023/09/21 09:35:45;;;;;;;56.20;2.00;;;;;;;;;;5132061;27;20436;-69
2023/09/21 09:38:12;;;;;;;56.07;2.10;;;;;;;;;;5131680;27;20460;-69
2023/09/21 09:40:40;;;;;;;56.50;2.30;;;;;;;;;;5132293;27;20536;-70
2023/09/21 09:43:08;;;;;;;55.77;1.67;;;;;;;;;;5132194;27;20449;-70
2023/09/21 09:45:38;;;;;;;56.50;2.57;;;;;;;;;;5131913;27;20519;-71
2023/09/21 09:48:11;;;;;;;55.90;2.07;;;;;;;;;;5131545;27;20472;-70
2023/09/21 09:50:41;;;;;;;55.77;1.93;;;;;;;;;;5131860;27;20543;-69
2023/09/21 09:53:10;;;;;;;55.73;1.93;;;;;;;;;;5132048;27;20444;-70
2023/09/21 09:55:42;;;;;;;56.03;1.70;;;;;;;;;;5131688;27;20473;-70
2023/09/21 09:58:09;;;;;;;56.40;1.80;;;;;;;;;;5131618;27;20476;-70
2023/09/21 10:00:39;;;;;;;55.50;1.77;;;;;;;;;;5131838;27;20450;-69
2023/09/21 10:03:08;;;;;;;55.90;2.13;;;;;;;;;;5132383;27;20476;-69
2023/09/21 10:05:36;;;;;;;55.93;2.03;;;;;;;;;;5131859;27;20921;-70
2023/09/21 10:08:05;;;;;;;56.00;2.00;;;;;;;;;;5131571;27;20464;-70
2023/09/21 10:10:36;;;;;;;56.00;1.90;;;;;;;;;;5131708;27;20608;-70
2023/09/21 10:13:05;;;;;;;56.20;2.23;;;;;;;;;;5131918;27;20452;-70
2023/09/21 10:15:33;;;;;;;55.83;1.80;;;;;;;;;;5131448;27;20862;-70
2023/09/21 10:18:02;;;;;;;56.00;2.00;;;;;;;;;;5131506;27;20829;-70
2023/09/21 10:20:32;;;;;;;55.57;1.80;;;;;;;;;;5131741;27;20444;-70
2023/09/21 10:23:01;;;;;;;55.83;1.97;;;;;;;;;;5131989;27;20448;-70
2023/09/21 10:25:39;;;;;;;55.77;2.07;;;;;;;;;;5131559;27;20487;-70
2023/09/21 10:28:27;;;;;;;55.50;1.80;;;;;;;;;;5131293;27;20472;-70
2023/09/21 10:30:54;;;;;;;56.20;2.00;;;;;;;;;;5131786;27;20452;-69
2023/09/21 10:33:25;;;;;;;56.10;1.80;;;;;;;;;;5131526;27;20820;-69
2023/09/21 10:35:53;;;;;;;56.00;1.73;;;;;;;;;;5131635;27;20482;-69
2023/09/21 10:38:20;;;;;;;56.00;1.83;;;;;;;;;;5131143;27;20461;-69
2023/09/21 10:40:47;;;;;;;56.00;1.93;;;;;;;;;;5131744;27;20443;-69
2023/09/21 10:43:48;;;;;;;56.20;2.40;;;;;;;;;;5131319;27;20440;-69
2023/09/21 10:46:21;;;;;;;55.77;1.70;;;;;;;;;;5071019;28;20497;-69
2023/09/21 10:48:49;;;;;;;56.30;2.10;;;;;;;;;;5071567;28;20467;-70
2023/09/21 10:51:17;;;;;;;55.77;2.00;;;;;;;;;;5071389;28;20458;-70
2023/09/21 10:53:44;;;;;;;55.80;1.90;;;;;;;;;;5071669;28;20479;-69
2023/09/21 10:56:11;;;;;;;55.70;1.70;;;;;;;;;;5071582;28;20534;-70
2023/09/21 10:58:39;;;;;;;56.00;2.17;;;;;;;;;;5071082;28;20473;-70
2023/09/21 11:01:06;;;;;;;55.50;1.70;;;;;;;;;;5071605;28;20443;-71
2023/09/21 11:03:35;;;;;;;55.40;1.70;;;;;;;;;;5071173;28;20443;-70
2023/09/21 11:06:03;;;;;;;55.63;1.80;;;;;;;;;;5071264;28;20518;-70
2023/09/21 11:08:31;;;;;;;55.40;2.10;;;;;;;;;;5070873;28;20473;-70
2023/09/21 11:10:58;;;;;;;55.23;1.50;;;;;;;;;;5071200;28;20821;-70
2023/09/21 11:13:27;;;;;;;55.00;1.50;;;;;;;;;;5071237;28;20530;-70
2023/09/21 11:15:54;;;;;;;55.43;1.73;;;;;;;;;;5071201;28;20854;-70
2023/09/21 11:18:21;;;;;;;55.27;1.90;;;;;;;;;;5133414;27;20471;-70
2023/09/21 11:20:49;;;;;;;55.30;1.70;;;;;;;;;;5134837;27;20464;-69
2023/09/21 11:23:19;;;;;;;55.60;2.00;;;;;;;;;;5134684;27;20454;-69
2023/09/21 11:25:50;;;;;;;55.20;1.87;;;;;;;;;;5134632;27;20480;-70
2023/09/21 11:28:17;;;;;;;55.03;1.70;;;;;;;;;;5134296;27;20557;-69
2023/09/21 11:30:44;;;;;;;54.97;1.50;;;;;;;;;;5134461;27;20445;-70
2023/09/21 11:33:11;;;;;;;54.90;1.77;;;;;;;;;;5134680;27;20933;-71
2023/09/21 11:35:38;;;;;;;55.00;1.87;;;;;;;;;;5134696;27;20444;-68
2023/09/21 11:38:05;;;;;;;54.90;1.60;;;;;;;;;;5134320;27;20463;-70
2023/09/21 11:40:34;;;;;;;55.20;1.90;;;;;;;;;;5134319;27;20855;-69
2023/09/21 11:43:04;;;;;;;55.03;1.60;;;;;;;;;;5134225;27;20487;-70
2023/09/21 11:45:31;;;;;;;55.10;1.90;;;;;;;;;;5134058;27;20445;-70
2023/09/21 11:47:59;;;;;;;55.77;1.93;;;;;;;;;;5134127;27;20464;-70
2023/09/21 11:50:26;;;;;;;55.50;1.80;;;;;;;;;;5133947;27;20453;-70
2023/09/21 11:52:57;;;;;;;55.20;1.80;;;;;;;;;;5133428;27;20461;-70
2023/09/21 11:55:24;;;;;;;55.57;2.03;;;;;;;;;;5132927;27;20476;-70
2023/09/21 11:57:54;;;;;;;55.27;1.70;;;;;;;;;;5132630;27;20471;-70
2023/09/21 12:00:34;;;;;;;55.37;1.63;;;;;;;;;;5133983;27;20476;-70
2023/09/21 12:03:04;;;;;;;55.27;1.60;;;;;;;;;;5133762;27;20441;-70
2023/09/21 12:05:32;;;;;;;55.47;1.70;;;;;;;;;;5133694;27;20448;-70
2023/09/21 12:07:59;;;;;;;55.90;1.67;;;;;;;;;;5133252;27;20460;-70
2023/09/21 12:10:26;;;;;;;55.23;1.87;;;;;;;;;;5133393;27;20448;-70
2023/09/21 12:12:55;;;;;;;55.17;1.60;;;;;;;;;;5133965;27;20444;-70
2023/09/21 12:15:22;;;;;;;55.20;1.60;;;;;;;;;;5133504;27;20437;-69
2023/09/21 12:17:49;;;;;;;55.27;1.70;;;;;;;;;;5133515;27;20475;-70
2023/09/21 12:20:18;;;;;;;55.63;1.80;;;;;;;;;;5134799;27;20513;-69
2023/09/21 12:22:45;;;;;;;55.57;2.00;;;;;;;;;;5132848;27;20452;-70
2023/09/21 12:25:14;;;;;;;55.50;1.80;;;;;;;;;;5133534;27;20449;-69
2023/09/21 12:27:42;;;;;;;55.37;1.63;;;;;;;;;;5133102;27;20496;-70
2023/09/21 12:30:14;;;;;;;55.90;1.60;;;;;;;;;;5133450;27;20444;-69
2023/09/21 12:32:41;;;;;;;55.40;1.63;;;;;;;;;;5133108;27;20445;-69
2023/09/21 12:35:09;;;;;;;55.07;1.50;;;;;;;;;;5133360;27;20445;-69
2023/09/21 12:37:36;;;;;;;55.07;1.67;;;;;;;;;;5132748;27;20465;-70
2023/09/21 12:40:07;;;;;;;55.17;1.60;;;;;;;;;;5133432;27;20638;-70
2023/09/21 12:42:34;;;;;;;55.20;1.53;;;;;;;;;;5133339;27;20754;-70
2023/09/21 12:45:02;;;;;;;56.77;1.90;;;;;;;;;;5133221;27;20441;-69
2023/09/21 12:47:30;;;;;;;55.37;1.63;;;;;;;;;;5132834;27;20464;-70
2023/09/21 12:49:58;;;;;;;55.07;1.67;;;;;;;;;;5132864;27;20449;-70
2023/09/21 12:52:25;;;;;;;54.97;1.67;;;;;;;;;;5132925;27;20944;-70
2023/09/21 12:54:52;;;;;;;55.07;1.70;;;;;;;;;;5133116;27;20452;-70
2023/09/21 12:57:19;;;;;;;54.80;1.50;;;;;;;;;;5132458;27;20484;-70
2023/09/21 12:59:47;;;;;;;54.90;1.90;;;;;;;;;;5132722;27;20960;-70
2023/09/21 13:02:14;;;;;;;55.23;2.10;;;;;;;;;;5132864;27;20828;-71
2023/09/21 13:04:43;;;;;;;55.30;1.90;;;;;;;;;;5132491;27;20458;-70
2023/09/21 13:07:10;;;;;;;54.97;1.80;;;;;;;;;;5132468;27;20452;-70
2023/09/21 13:09:37;;;;;;;54.93;1.60;;;;;;;;;;5131894;27;20452;-70
2023/09/21 13:12:04;;;;;;;55.27;2.10;;;;;;;;;;5132994;27;20445;-70
2023/09/21 13:14:31;;;;;;;55.17;1.93;;;;;;;;;;5132531;27;20448;-69
2023/09/21 13:17:04;;;;;;;56.57;2.70;;;;;;;;;;5132168;27;20494;-70
2023/09/21 13:19:31;;;;;;;55.07;1.80;;;;;;;;;;5132397;27;20536;-70
2023/09/21 13:21:59;;;;;;;54.80;1.60;;;;;;;;;;5132687;27;20441;-70
2023/09/21 13:24:26;;;;;;;55.10;1.90;;;;;;;;;;5132449;27;20445;-70
2023/09/21 13:26:53;;;;;;;54.87;1.83;;;;;;;;;;5132256;27;20459;-70
2023/09/21 13:29:21;;;;;;;54.57;1.60;;;;;;;;;;5132235;27;20445;-70
2023/09/21 13:31:48;;;;;;;54.77;1.90;;;;;;;;;;5132230;27;20447;-70
2023/09/21 13:34:15;;;;;;;54.80;1.70;;;;;;;;;;5132155;27;20814;-71
2023/09/21 13:36:42;;;;;;;54.67;1.67;;;;;;;;;;5131912;27;20833;-70
2023/09/21 13:39:10;;;;;;;54.77;1.90;;;;;;;;;;5132113;27;20453;-69
2023/09/21 13:41:37;;;;;;;54.80;1.80;;;;;;;;;;5132079;27;20832;-71
2023/09/21 13:44:05;;;;;;;55.20;1.90;;;;;;;;;;5131966;27;20445;-70
2023/09/21 13:46:32;;;;;;;54.87;1.70;;;;;;;;;;5132294;27;20437;-70
2023/09/21 13:49:00;;;;;;;55.17;1.97;;;;;;;;;;5132188;27;20453;-69
2023/09/21 13:51:28;;;;;;;55.07;1.70;;;;;;;;;;5131759;27;20464;-70
2023/09/21 13:53:55;;;;;;;54.87;1.70;;;;;;;;;;5132051;27;20449;-71
2023/09/21 13:56:23;;;;;;;55.10;1.70;;;;;;;;;;5131556;27;20503;-70
2023/09/21 13:58:50;;;;;;;54.90;1.63;;;;;;;;;;5131703;27;20444;-71
2023/09/21 14:01:19;;;;;;;55.40;1.60;;;;;;;;;;5132024;27;20445;-69
2023/09/21 14:03:46;;;;;;;54.87;1.60;;;;;;;;;;5131946;27;20437;-70
2023/09/21 14:06:13;;;;;;;55.07;1.93;;;;;;;;;;5131663;27;20475;-70
2023/09/21 14:08:41;;;;;;;54.67;1.50;;;;;;;;;;5131272;27;20479;-70
2023/09/21 14:11:08;;;;;;;54.90;1.73;;;;;;;;;;5131683;27;20473;-70
2023/09/21 14:13:36;;;;;;;54.77;1.77;;;;;;;;;;5131925;27;20445;-70
2023/09/21 14:16:04;;;;;;;54.80;1.90;;;;;;;;;;5131710;27;20562;-70
2023/09/21 14:18:31;;;;;;;54.77;1.83;;;;;;;;;;5131504;27;20536;-70
2023/09/21 14:20:58;;;;;;;54.80;1.80;;;;;;;;;;5134698;27;20444;-70
2023/09/21 14:23:25;;;;;;;55.57;1.90;;;;;;;;;;5135801;27;20940;-70
2023/09/21 14:25:52;;;;;;;55.17;1.80;;;;;;;;;;5135829;27;20451;-70
2023/09/21 14:28:19;;;;;;;55.10;1.70;;;;;;;;;;5135788;27;20465;-70
2023/09/21 14:30:47;;;;;;;55.10;1.60;;;;;;;;;;5135873;27;20451;-70
2023/09/21 14:33:15;;;;;;;55.07;1.50;;;;;;;;;;5135696;27;20453;-70
2023/09/21 14:35:42;;;;;;;55.00;1.60;;;;;;;;;;5135580;27;20883;-69